sensor_id;sensor_type;location;lat;lon;timestamp;P1;durP1;ratioP1;P2;durP2;ratioP2
20865;SDS011;10593;48.398;10.698;2023-07-13T00:00:33;2.00;;;1.90;;
20865;SDS011;10593;48.398;10.698;2023-07-13T00:02:59;2.37;;;1.90;;
20865;SDS011;10593;48.398;10.698;2023-07-13T00:05:24;2.07;;;1.87;;
20865;SDS011;10593;48.398;10.698;2023-07-13T00:07:51;1.87;;;1.70;;
20865;SDS011;10593;48.398;10.698;2023-07-13T00:10:17;2.03;;;1.90;;
20865;SDS011;10593;48.398;10.698;2023-07-13T00:12:43;2.23;;;1.70;;
20865;SDS011;10593;48.398;10.698;2023-07-13T00:15:13;5.23;;;1.80;;
20865;SDS011;10593;48.398;10.698;2023-07-13T00:17:42;2.53;;;2.10;;
20865;SDS011;10593;48.398;10.698;2023-07-13T00:20:11;2.17;;;1.90;;
20865;SDS011;10593;48.398;10.698;2023-07-13T00:22:37;2.20;;;1.97;;
20865;SDS011;10593;48.398;10.698;2023-07-13T00:25:03;2.23;;;2.13;;
20865;SDS011;10593;48.398;10.698;2023-07-13T00:27:29;6.27;;;2.40;;
20865;SDS011;10593;48.398;10.698;2023-07-13T00:29:56;2.77;;;2.10;;
20865;SDS011;10593;48.398;10.698;2023-07-13T00:32:23;2.33;;;1.90;;
20865;SDS011;10593;48.398;10.698;2023-07-13T00:34:50;3.67;;;2.50;;
20865;SDS011;10593;48.398;10.698;2023-07-13T00:37:17;2.70;;;2.00;;
20865;SDS011;10593;48.398;10.698;2023-07-13T00:39:43;2.47;;;2.27;;
20865;SDS011;10593;48.398;10.698;2023-07-13T00:42:08;2.70;;;2.13;;
20865;SDS011;10593;48.398;10.698;2023-07-13T00:44:36;2.23;;;2.00;;
20865;SDS011;10593;48.398;10.698;2023-07-13T00:47:02;5.87;;;2.37;;
20865;SDS011;10593;48.398;10.698;2023-07-13T00:49:29;2.47;;;1.90;;
20865;SDS011;10593;48.398;10.698;2023-07-13T00:51:58;2.00;;;1.90;;
20865;SDS011;10593;48.398;10.698;2023-07-13T00:54:30;2.93;;;2.00;;
20865;SDS011;10593;48.398;10.698;2023-07-13T00:57:01;2.53;;;2.33;;
20865;SDS011;10593;48.398;10.698;2023-07-13T00:59:30;2.57;;;2.20;;
20865;SDS011;10593;48.398;10.698;2023-07-13T01:01:57;2.70;;;2.50;;
20865;SDS011;10593;48.398;10.698;2023-07-13T01:04:24;2.47;;;1.87;;
20865;SDS011;10593;48.398;10.698;2023-07-13T01:06:51;2.00;;;1.90;;
20865;SDS011;10593;48.398;10.698;2023-07-13T01:09:17;2.17;;;2.07;;
20865;SDS011;10593;48.398;10.698;2023-07-13T01:11:45;2.30;;;2.10;;
20865;SDS011;10593;48.398;10.698;2023-07-13T01:14:11;2.37;;;2.13;;
20865;SDS011;10593;48.398;10.698;2023-07-13T01:16:37;2.50;;;1.90;;
20865;SDS011;10593;48.398;10.698;2023-07-13T01:19:07;2.33;;;2.17;;
20865;SDS011;10593;48.398;10.698;2023-07-13T01:22:08;4.20;;;1.97;;
20865;SDS011;10593;48.398;10.698;2023-07-13T01:24:38;2.70;;;2.50;;
20865;SDS011;10593;48.398;10.698;2023-07-13T01:27:09;2.73;;;2.53;;
20865;SDS011;10593;48.398;10.698;2023-07-13T01:29:38;4.03;;;2.80;;
20865;SDS011;10593;48.398;10.698;2023-07-13T01:32:09;2.57;;;2.37;;
20865;SDS011;10593;48.398;10.698;2023-07-13T01:34:39;2.90;;;2.60;;
20865;SDS011;10593;48.398;10.698;2023-07-13T01:37:07;3.00;;;2.73;;
20865;SDS011;10593;48.398;10.698;2023-07-13T01:39:34;2.70;;;2.50;;
20865;SDS011;10593;48.398;10.698;2023-07-13T01:42:01;2.97;;;2.63;;
20865;SDS011;10593;48.398;10.698;2023-07-13T01:44:27;2.93;;;2.73;;
20865;SDS011;10593;48.398;10.698;2023-07-13T01:46:52;4.17;;;2.83;;
20865;SDS011;10593;48.398;10.698;2023-07-13T01:49:18;3.13;;;2.83;;
20865;SDS011;10593;48.398;10.698;2023-07-13T01:51:44;3.07;;;2.87;;
20865;SDS011;10593;48.398;10.698;2023-07-13T01:54:10;3.00;;;2.80;;
20865;SDS011;10593;48.398;10.698;2023-07-13T01:56:35;4.23;;;3.00;;
20865;SDS011;10593;48.398;10.698;2023-07-13T01:59:01;3.77;;;3.03;;
20865;SDS011;10593;48.398;10.698;2023-07-13T02:01:26;3.27;;;3.00;;
20865;SDS011;10593;48.398;10.698;2023-07-13T02:03:52;3.27;;;2.80;;
20865;SDS011;10593;48.398;10.698;2023-07-13T02:06:18;4.27;;;2.80;;
20865;SDS011;10593;48.398;10.698;2023-07-13T02:08:43;3.10;;;2.80;;
20865;SDS011;10593;48.398;10.698;2023-07-13T02:11:09;2.90;;;2.70;;
20865;SDS011;10593;48.398;10.698;2023-07-13T02:13:35;3.87;;;2.60;;
20865;SDS011;10593;48.398;10.698;2023-07-13T02:16:00;3.10;;;2.80;;
20865;SDS011;10593;48.398;10.698;2023-07-13T02:18:26;3.17;;;2.97;;
20865;SDS011;10593;48.398;10.698;2023-07-13T02:20:52;3.27;;;3.00;;
20865;SDS011;10593;48.398;10.698;2023-07-13T02:23:18;3.00;;;2.80;;
20865;SDS011;10593;48.398;10.698;2023-07-13T02:25:45;3.43;;;2.63;;
20865;SDS011;10593;48.398;10.698;2023-07-13T02:28:11;4.70;;;3.10;;
20865;SDS011;10593;48.398;10.698;2023-07-13T02:30:37;3.23;;;2.47;;
20865;SDS011;10593;48.398;10.698;2023-07-13T02:33:03;2.90;;;2.60;;
20865;SDS011;10593;48.398;10.698;2023-07-13T02:35:30;3.67;;;2.70;;
20865;SDS011;10593;48.398;10.698;2023-07-13T02:37:56;2.73;;;2.20;;
20865;SDS011;10593;48.398;10.698;2023-07-13T02:40:22;2.97;;;2.50;;
20865;SDS011;10593;48.398;10.698;2023-07-13T02:42:47;2.50;;;2.30;;
20865;SDS011;10593;48.398;10.698;2023-07-13T02:45:13;3.47;;;2.47;;
20865;SDS011;10593;48.398;10.698;2023-07-13T02:47:40;4.40;;;2.40;;
20865;SDS011;10593;48.398;10.698;2023-07-13T02:50:07;3.30;;;2.70;;
20865;SDS011;10593;48.398;10.698;2023-07-13T02:52:33;2.60;;;2.40;;
20865;SDS011;10593;48.398;10.698;2023-07-13T02:54:59;3.17;;;2.30;;
20865;SDS011;10593;48.398;10.698;2023-07-13T02:57:25;2.97;;;2.40;;
20865;SDS011;10593;48.398;10.698;2023-07-13T02:59:53;2.33;;;2.10;;
20865;SDS011;10593;48.398;10.698;2023-07-13T03:02:19;2.47;;;2.27;;
20865;SDS011;10593;48.398;10.698;2023-07-13T03:04:45;3.07;;;2.30;;
20865;SDS011;10593;48.398;10.698;2023-07-13T03:07:11;2.47;;;2.00;;
20865;SDS011;10593;48.398;10.698;2023-07-13T03:09:36;3.07;;;2.20;;
20865;SDS011;10593;48.398;10.698;2023-07-13T03:12:02;4.13;;;2.23;;
20865;SDS011;10593;48.398;10.698;2023-07-13T03:14:28;2.47;;;2.27;;
20865;SDS011;10593;48.398;10.698;2023-07-13T03:16:55;2.20;;;2.00;;
20865;SDS011;10593;48.398;10.698;2023-07-13T03:19:20;2.20;;;1.93;;
20865;SDS011;10593;48.398;10.698;2023-07-13T03:21:46;2.17;;;1.97;;
20865;SDS011;10593;48.398;10.698;2023-07-13T03:24:12;2.00;;;1.80;;
20865;SDS011;10593;48.398;10.698;2023-07-13T03:26:37;2.60;;;2.23;;
20865;SDS011;10593;48.398;10.698;2023-07-13T03:29:03;2.30;;;2.10;;
20865;SDS011;10593;48.398;10.698;2023-07-13T03:31:29;2.57;;;2.30;;
20865;SDS011;10593;48.398;10.698;2023-07-13T03:33:59;2.17;;;1.97;;
20865;SDS011;10593;48.398;10.698;2023-07-13T03:36:26;4.43;;;2.30;;
20865;SDS011;10593;48.398;10.698;2023-07-13T03:38:59;4.60;;;2.77;;
20865;SDS011;10593;48.398;10.698;2023-07-13T03:41:27;2.23;;;2.00;;
20865;SDS011;10593;48.398;10.698;2023-07-13T03:43:52;3.17;;;2.20;;
20865;SDS011;10593;48.398;10.698;2023-07-13T03:46:18;2.70;;;2.13;;
20865;SDS011;10593;48.398;10.698;2023-07-13T03:48:44;2.07;;;1.87;;
20865;SDS011;10593;48.398;10.698;2023-07-13T03:51:12;2.10;;;1.90;;
20865;SDS011;10593;48.398;10.698;2023-07-13T03:53:41;2.37;;;1.90;;
20865;SDS011;10593;48.398;10.698;2023-07-13T03:56:09;1.87;;;1.77;;
20865;SDS011;10593;48.398;10.698;2023-07-13T03:58:37;4.57;;;2.40;;
20865;SDS011;10593;48.398;10.698;2023-07-13T04:01:06;2.73;;;2.03;;
20865;SDS011;10593;48.398;10.698;2023-07-13T04:03:34;2.23;;;2.07;;
20865;SDS011;10593;48.398;10.698;2023-07-13T04:06:02;2.43;;;2.23;;
20865;SDS011;10593;48.398;10.698;2023-07-13T04:08:31;3.50;;;2.10;;
20865;SDS011;10593;48.398;10.698;2023-07-13T04:11:02;5.73;;;2.47;;
20865;SDS011;10593;48.398;10.698;2023-07-13T04:13:29;2.93;;;2.07;;
20865;SDS011;10593;48.398;10.698;2023-07-13T04:15:55;2.00;;;1.90;;
20865;SDS011;10593;48.398;10.698;2023-07-13T04:18:21;4.33;;;1.90;;
20865;SDS011;10593;48.398;10.698;2023-07-13T04:20:47;2.10;;;1.90;;
20865;SDS011;10593;48.398;10.698;2023-07-13T04:23:15;4.40;;;2.00;;
20865;SDS011;10593;48.398;10.698;2023-07-13T04:25:45;2.70;;;1.83;;
20865;SDS011;10593;48.398;10.698;2023-07-13T04:28:14;1.80;;;1.70;;
20865;SDS011;10593;48.398;10.698;2023-07-13T04:30:41;1.70;;;1.60;;
20865;SDS011;10593;48.398;10.698;2023-07-13T04:33:06;2.13;;;1.63;;
20865;SDS011;10593;48.398;10.698;2023-07-13T04:35:33;2.20;;;1.60;;
20865;SDS011;10593;48.398;10.698;2023-07-13T04:37:59;1.77;;;1.67;;
20865;SDS011;10593;48.398;10.698;2023-07-13T04:40:26;2.30;;;1.77;;
20865;SDS011;10593;48.398;10.698;2023-07-13T04:42:53;2.13;;;1.70;;
20865;SDS011;10593;48.398;10.698;2023-07-13T04:45:18;1.70;;;1.60;;
20865;SDS011;10593;48.398;10.698;2023-07-13T04:47:44;1.90;;;1.80;;
20865;SDS011;10593;48.398;10.698;2023-07-13T04:50:12;2.17;;;1.77;;
20865;SDS011;10593;48.398;10.698;2023-07-13T04:52:43;3.10;;;1.63;;
20865;SDS011;10593;48.398;10.698;2023-07-13T04:55:09;3.00;;;1.90;;
20865;SDS011;10593;48.398;10.698;2023-07-13T04:57:36;2.13;;;1.70;;
20865;SDS011;10593;48.398;10.698;2023-07-13T05:00:02;1.87;;;1.77;;
20865;SDS011;10593;48.398;10.698;2023-07-13T05:02:31;2.80;;;1.60;;
20865;SDS011;10593;48.398;10.698;2023-07-13T05:04:57;1.67;;;1.57;;
20865;SDS011;10593;48.398;10.698;2023-07-13T05:07:24;3.00;;;1.40;;
20865;SDS011;10593;48.398;10.698;2023-07-13T05:09:51;2.17;;;1.50;;
20865;SDS011;10593;48.398;10.698;2023-07-13T05:12:17;1.90;;;1.80;;
20865;SDS011;10593;48.398;10.698;2023-07-13T05:14:43;1.97;;;1.60;;
20865;SDS011;10593;48.398;10.698;2023-07-13T05:17:09;3.77;;;2.17;;
20865;SDS011;10593;48.398;10.698;2023-07-13T05:19:36;3.90;;;1.93;;
20865;SDS011;10593;48.398;10.698;2023-07-13T05:22:02;1.80;;;1.70;;
20865;SDS011;10593;48.398;10.698;2023-07-13T05:24:29;2.00;;;1.80;;
20865;SDS011;10593;48.398;10.698;2023-07-13T05:26:54;4.80;;;1.70;;
20865;SDS011;10593;48.398;10.698;2023-07-13T05:29:20;1.90;;;1.50;;
20865;SDS011;10593;48.398;10.698;2023-07-13T05:31:47;1.60;;;1.47;;
20865;SDS011;10593;48.398;10.698;2023-07-13T05:34:13;2.87;;;1.50;;
20865;SDS011;10593;48.398;10.698;2023-07-13T05:36:39;1.80;;;1.70;;
20865;SDS011;10593;48.398;10.698;2023-07-13T05:39:06;2.20;;;1.60;;
20865;SDS011;10593;48.398;10.698;2023-07-13T05:41:31;2.13;;;1.80;;
20865;SDS011;10593;48.398;10.698;2023-07-13T05:43:57;1.73;;;1.60;;
20865;SDS011;10593;48.398;10.698;2023-07-13T05:46:23;2.73;;;1.57;;
20865;SDS011;10593;48.398;10.698;2023-07-13T05:48:49;1.90;;;1.80;;
20865;SDS011;10593;48.398;10.698;2023-07-13T05:51:14;4.73;;;1.60;;
20865;SDS011;10593;48.398;10.698;2023-07-13T05:53:40;1.87;;;1.77;;
20865;SDS011;10593;48.398;10.698;2023-07-13T05:56:06;1.93;;;1.70;;
20865;SDS011;10593;48.398;10.698;2023-07-13T05:58:31;3.43;;;1.53;;
20865;SDS011;10593;48.398;10.698;2023-07-13T06:01:10;2.00;;;1.80;;
20865;SDS011;10593;48.398;10.698;2023-07-13T06:03:39;3.90;;;1.60;;
20865;SDS011;10593;48.398;10.698;2023-07-13T06:06:05;2.07;;;1.47;;
20865;SDS011;10593;48.398;10.698;2023-07-13T06:08:33;1.80;;;1.70;;
20865;SDS011;10593;48.398;10.698;2023-07-13T06:11:03;3.40;;;1.80;;
20865;SDS011;10593;48.398;10.698;2023-07-13T06:13:32;2.23;;;1.83;;
20865;SDS011;10593;48.398;10.698;2023-07-13T06:15:58;2.03;;;1.50;;
20865;SDS011;10593;48.398;10.698;2023-07-13T06:18:25;1.50;;;1.40;;
20865;SDS011;10593;48.398;10.698;2023-07-13T06:20:50;3.17;;;1.63;;
20865;SDS011;10593;48.398;10.698;2023-07-13T06:23:16;1.73;;;1.57;;
20865;SDS011;10593;48.398;10.698;2023-07-13T06:25:42;2.83;;;1.90;;
20865;SDS011;10593;48.398;10.698;2023-07-13T06:28:08;2.23;;;1.60;;
20865;SDS011;10593;48.398;10.698;2023-07-13T06:30:34;5.20;;;1.80;;
20865;SDS011;10593;48.398;10.698;2023-07-13T06:32:59;2.30;;;1.70;;
20865;SDS011;10593;48.398;10.698;2023-07-13T06:35:25;1.93;;;1.70;;
20865;SDS011;10593;48.398;10.698;2023-07-13T06:37:51;1.70;;;1.60;;
20865;SDS011;10593;48.398;10.698;2023-07-13T06:40:16;2.57;;;1.63;;
20865;SDS011;10593;48.398;10.698;2023-07-13T06:42:42;1.50;;;1.40;;
20865;SDS011;10593;48.398;10.698;2023-07-13T06:45:08;1.77;;;1.60;;
20865;SDS011;10593;48.398;10.698;2023-07-13T06:47:34;3.10;;;1.47;;
20865;SDS011;10593;48.398;10.698;2023-07-13T06:50:00;1.37;;;1.27;;
20865;SDS011;10593;48.398;10.698;2023-07-13T06:52:26;2.07;;;1.50;;
20865;SDS011;10593;48.398;10.698;2023-07-13T06:54:51;1.90;;;1.27;;
20865;SDS011;10593;48.398;10.698;2023-07-13T06:57:17;1.40;;;1.40;;
20865;SDS011;10593;48.398;10.698;2023-07-13T06:59:43;1.23;;;1.13;;
20865;SDS011;10593;48.398;10.698;2023-07-13T07:02:09;2.90;;;1.50;;
20865;SDS011;10593;48.398;10.698;2023-07-13T07:04:35;1.43;;;1.33;;
20865;SDS011;10593;48.398;10.698;2023-07-13T07:07:01;3.37;;;1.67;;
20865;SDS011;10593;48.398;10.698;2023-07-13T07:09:27;1.93;;;1.33;;
20865;SDS011;10593;48.398;10.698;2023-07-13T07:11:55;1.60;;;1.50;;
20865;SDS011;10593;48.398;10.698;2023-07-13T07:14:20;1.57;;;1.20;;
20865;SDS011;10593;48.398;10.698;2023-07-13T07:16:46;2.20;;;1.60;;
20865;SDS011;10593;48.398;10.698;2023-07-13T07:19:12;1.70;;;1.30;;
20865;SDS011;10593;48.398;10.698;2023-07-13T07:21:37;3.87;;;1.40;;
20865;SDS011;10593;48.398;10.698;2023-07-13T07:24:03;1.50;;;1.40;;
20865;SDS011;10593;48.398;10.698;2023-07-13T07:26:30;3.10;;;1.43;;
20865;SDS011;10593;48.398;10.698;2023-07-13T07:28:56;2.37;;;1.30;;
20865;SDS011;10593;48.398;10.698;2023-07-13T07:31:22;1.40;;;1.30;;
20865;SDS011;10593;48.398;10.698;2023-07-13T07:33:47;1.43;;;1.00;;
20865;SDS011;10593;48.398;10.698;2023-07-13T07:36:14;2.90;;;1.30;;
20865;SDS011;10593;48.398;10.698;2023-07-13T07:38:41;2.23;;;1.33;;
20865;SDS011;10593;48.398;10.698;2023-07-13T07:41:07;5.10;;;3.13;;
20865;SDS011;10593;48.398;10.698;2023-07-13T07:43:33;1.20;;;1.20;;
20865;SDS011;10593;48.398;10.698;2023-07-13T07:45:59;1.97;;;1.30;;
20865;SDS011;10593;48.398;10.698;2023-07-13T07:48:25;2.67;;;1.47;;
20865;SDS011;10593;48.398;10.698;2023-07-13T07:50:50;1.77;;;1.40;;
20865;SDS011;10593;48.398;10.698;2023-07-13T07:53:16;1.43;;;1.33;;
20865;SDS011;10593;48.398;10.698;2023-07-13T07:55:42;1.23;;;1.13;;
20865;SDS011;10593;48.398;10.698;2023-07-13T07:58:08;4.13;;;1.20;;
20865;SDS011;10593;48.398;10.698;2023-07-13T08:00:34;1.27;;;1.17;;
20865;SDS011;10593;48.398;10.698;2023-07-13T08:03:00;1.93;;;1.03;;
20865;SDS011;10593;48.398;10.698;2023-07-13T08:05:27;1.37;;;1.27;;
20865;SDS011;10593;48.398;10.698;2023-07-13T08:07:53;3.30;;;1.20;;
20865;SDS011;10593;48.398;10.698;2023-07-13T08:10:19;2.00;;;1.27;;
20865;SDS011;10593;48.398;10.698;2023-07-13T08:12:45;2.97;;;1.40;;
20865;SDS011;10593;48.398;10.698;2023-07-13T08:15:12;2.37;;;1.10;;
20865;SDS011;10593;48.398;10.698;2023-07-13T08:17:41;1.60;;;1.27;;
20865;SDS011;10593;48.398;10.698;2023-07-13T08:20:07;1.57;;;1.37;;
20865;SDS011;10593;48.398;10.698;2023-07-13T08:22:36;2.10;;;1.90;;
20865;SDS011;10593;48.398;10.698;2023-07-13T08:25:02;2.50;;;1.33;;
20865;SDS011;10593;48.398;10.698;2023-07-13T08:27:28;3.23;;;1.13;;
20865;SDS011;10593;48.398;10.698;2023-07-13T08:29:54;1.63;;;1.53;;
20865;SDS011;10593;48.398;10.698;2023-07-13T08:32:20;2.47;;;1.40;;
20865;SDS011;10593;48.398;10.698;2023-07-13T08:34:47;1.43;;;1.10;;
20865;SDS011;10593;48.398;10.698;2023-07-13T08:37:14;2.20;;;1.57;;
20865;SDS011;10593;48.398;10.698;2023-07-13T08:39:40;4.20;;;1.10;;
20865;SDS011;10593;48.398;10.698;2023-07-13T08:42:14;1.93;;;1.47;;
20865;SDS011;10593;48.398;10.698;2023-07-13T08:48:03;2.23;;;1.27;;
20865;SDS011;10593;48.398;10.698;2023-07-13T08:50:39;2.43;;;1.23;;
20865;SDS011;10593;48.398;10.698;2023-07-13T08:53:17;1.93;;;1.40;;
20865;SDS011;10593;48.398;10.698;2023-07-13T08:55:44;1.47;;;1.30;;
20865;SDS011;10593;48.398;10.698;2023-07-13T08:58:16;2.63;;;1.43;;
20865;SDS011;10593;48.398;10.698;2023-07-13T09:00:46;3.73;;;1.23;;
20865;SDS011;10593;48.398;10.698;2023-07-13T09:03:31;1.50;;;1.40;;
20865;SDS011;10593;48.398;10.698;2023-07-13T09:06:08;1.57;;;1.20;;
20865;SDS011;10593;48.398;10.698;2023-07-13T09:08:51;1.60;;;1.40;;
20865;SDS011;10593;48.398;10.698;2023-07-13T09:14:43;2.23;;;1.37;;
20865;SDS011;10593;48.398;10.698;2023-07-13T09:17:17;1.90;;;1.17;;
20865;SDS011;10593;48.398;10.698;2023-07-13T09:19:55;1.50;;;1.40;;
20865;SDS011;10593;48.398;10.698;2023-07-13T09:22:29;3.93;;;1.37;;
20865;SDS011;10593;48.398;10.698;2023-07-13T09:25:10;2.87;;;1.43;;
20865;SDS011;10593;48.398;10.698;2023-07-13T09:27:58;1.60;;;1.50;;
20865;SDS011;10593;48.398;10.698;2023-07-13T09:30:38;2.33;;;1.40;;
20865;SDS011;10593;48.398;10.698;2023-07-13T09:33:20;4.27;;;1.70;;
20865;SDS011;10593;48.398;10.698;2023-07-13T09:35:47;9.23;;;1.77;;
20865;SDS011;10593;48.398;10.698;2023-07-13T09:38:15;2.07;;;1.60;;
20865;SDS011;10593;48.398;10.698;2023-07-13T09:44:10;1.30;;;1.20;;
20865;SDS011;10593;48.398;10.698;2023-07-13T09:47:00;2.70;;;1.37;;
20865;SDS011;10593;48.398;10.698;2023-07-13T09:49:31;1.13;;;1.13;;
20865;SDS011;10593;48.398;10.698;2023-07-13T09:52:03;1.73;;;1.20;;
20865;SDS011;10593;48.398;10.698;2023-07-13T09:54:35;2.20;;;1.27;;
20865;SDS011;10593;48.398;10.698;2023-07-13T09:57:02;1.33;;;1.20;;
20865;SDS011;10593;48.398;10.698;2023-07-13T09:59:40;2.33;;;1.20;;
20865;SDS011;10593;48.398;10.698;2023-07-13T10:02:30;1.33;;;1.10;;
20865;SDS011;10593;48.398;10.698;2023-07-13T10:05:11;1.10;;;1.00;;
20865;SDS011;10593;48.398;10.698;2023-07-13T10:07:43;2.20;;;1.20;;
20865;SDS011;10593;48.398;10.698;2023-07-13T10:10:20;1.20;;;1.00;;
20865;SDS011;10593;48.398;10.698;2023-07-13T10:12:48;7.97;;;1.20;;
20865;SDS011;10593;48.398;10.698;2023-07-13T10:15:17;1.47;;;1.10;;
20865;SDS011;10593;48.398;10.698;2023-07-13T10:17:47;1.67;;;1.40;;
20865;SDS011;10593;48.398;10.698;2023-07-13T10:20:15;3.43;;;1.00;;
20865;SDS011;10593;48.398;10.698;2023-07-13T10:25:21;1.73;;;1.20;;
20865;SDS011;10593;48.398;10.698;2023-07-13T10:27:51;1.50;;;1.23;;
20865;SDS011;10593;48.398;10.698;2023-07-13T10:30:24;1.30;;;1.10;;
20865;SDS011;10593;48.398;10.698;2023-07-13T10:33:01;1.00;;;0.93;;
20865;SDS011;10593;48.398;10.698;2023-07-13T10:35:30;1.87;;;1.27;;
20865;SDS011;10593;48.398;10.698;2023-07-13T10:37:58;1.97;;;1.20;;
20865;SDS011;10593;48.398;10.698;2023-07-13T10:40:52;2.90;;;1.00;;
20865;SDS011;10593;48.398;10.698;2023-07-13T10:43:28;1.67;;;1.40;;
20865;SDS011;10593;48.398;10.698;2023-07-13T10:46:06;1.63;;;1.20;;
20865;SDS011;10593;48.398;10.698;2023-07-13T10:48:36;1.83;;;1.23;;
20865;SDS011;10593;48.398;10.698;2023-07-13T10:51:05;1.20;;;1.07;;
20865;SDS011;10593;48.398;10.698;2023-07-13T10:53:33;3.70;;;1.23;;
20865;SDS011;10593;48.398;10.698;2023-07-13T10:56:03;1.70;;;1.13;;
20865;SDS011;10593;48.398;10.698;2023-07-13T10:58:42;1.70;;;1.30;;
20865;SDS011;10593;48.398;10.698;2023-07-13T11:01:10;1.43;;;1.00;;
20865;SDS011;10593;48.398;10.698;2023-07-13T11:03:54;1.57;;;1.30;;
20865;SDS011;10593;48.398;10.698;2023-07-13T11:08:54;2.43;;;1.30;;
20865;SDS011;10593;48.398;10.698;2023-07-13T11:18:51;0.90;;;0.90;;
20865;SDS011;10593;48.398;10.698;2023-07-13T11:24:52;2.37;;;1.27;;
20865;SDS011;10593;48.398;10.698;2023-07-13T11:27:41;1.33;;;1.10;;
20865;SDS011;10593;48.398;10.698;2023-07-13T11:35:49;1.60;;;1.10;;
20865;SDS011;10593;48.398;10.698;2023-07-13T11:40:56;1.80;;;1.30;;
20865;SDS011;10593;48.398;10.698;2023-07-13T11:43:29;1.27;;;1.10;;
20865;SDS011;10593;48.398;10.698;2023-07-13T11:45:55;1.90;;;1.20;;
20865;SDS011;10593;48.398;10.698;2023-07-13T11:48:28;1.87;;;1.40;;
20865;SDS011;10593;48.398;10.698;2023-07-13T11:51:00;1.30;;;1.20;;
20865;SDS011;10593;48.398;10.698;2023-07-13T11:53:31;2.93;;;1.50;;
20865;SDS011;10593;48.398;10.698;2023-07-13T11:56:10;1.20;;;1.10;;
20865;SDS011;10593;48.398;10.698;2023-07-13T11:58:36;1.30;;;1.20;;
20865;SDS011;10593;48.398;10.698;2023-07-13T12:01:02;1.80;;;1.30;;
20865;SDS011;10593;48.398;10.698;2023-07-13T12:03:32;1.00;;;0.97;;
20865;SDS011;10593;48.398;10.698;2023-07-13T12:06:04;1.33;;;1.20;;
20865;SDS011;10593;48.398;10.698;2023-07-13T12:08:55;2.70;;;1.17;;
20865;SDS011;10593;48.398;10.698;2023-07-13T12:11:23;1.40;;;1.30;;
20865;SDS011;10593;48.398;10.698;2023-07-13T12:13:49;1.43;;;1.30;;
20865;SDS011;10593;48.398;10.698;2023-07-13T12:16:36;1.50;;;1.03;;
20865;SDS011;10593;48.398;10.698;2023-07-13T12:19:02;1.63;;;1.17;;
20865;SDS011;10593;48.398;10.698;2023-07-13T12:21:30;4.00;;;1.27;;
20865;SDS011;10593;48.398;10.698;2023-07-13T12:24:03;5.03;;;1.43;;
20865;SDS011;10593;48.398;10.698;2023-07-13T12:26:38;5.03;;;1.20;;
20865;SDS011;10593;48.398;10.698;2023-07-13T12:29:04;2.70;;;1.50;;
20865;SDS011;10593;48.398;10.698;2023-07-13T12:31:36;1.30;;;1.20;;
20865;SDS011;10593;48.398;10.698;2023-07-13T12:36:35;1.80;;;1.00;;
20865;SDS011;10593;48.398;10.698;2023-07-13T12:42:00;3.10;;;1.40;;
20865;SDS011;10593;48.398;10.698;2023-07-13T12:44:50;1.73;;;1.60;;
20865;SDS011;10593;48.398;10.698;2023-07-13T12:47:23;1.50;;;1.00;;
20865;SDS011;10593;48.398;10.698;2023-07-13T12:49:50;1.53;;;1.43;;
20865;SDS011;10593;48.398;10.698;2023-07-13T12:52:23;1.50;;;1.17;;
20865;SDS011;10593;48.398;10.698;2023-07-13T12:54:59;1.23;;;1.23;;
20865;SDS011;10593;48.398;10.698;2023-07-13T12:57:41;1.83;;;1.43;;
20865;SDS011;10593;48.398;10.698;2023-07-13T13:00:23;2.23;;;1.40;;
20865;SDS011;10593;48.398;10.698;2023-07-13T13:03:02;1.30;;;1.30;;
20865;SDS011;10593;48.398;10.698;2023-07-13T13:05:43;1.70;;;1.00;;
20865;SDS011;10593;48.398;10.698;2023-07-13T13:08:13;0.97;;;0.97;;
20865;SDS011;10593;48.398;10.698;2023-07-13T13:10:39;1.00;;;1.00;;
20865;SDS011;10593;48.398;10.698;2023-07-13T13:13:04;3.00;;;1.10;;
20865;SDS011;10593;48.398;10.698;2023-07-13T13:15:30;1.53;;;1.20;;
20865;SDS011;10593;48.398;10.698;2023-07-13T13:17:56;1.53;;;1.37;;
20865;SDS011;10593;48.398;10.698;2023-07-13T13:20:23;1.07;;;1.07;;
20865;SDS011;10593;48.398;10.698;2023-07-13T13:22:52;1.83;;;1.23;;
20865;SDS011;10593;48.398;10.698;2023-07-13T13:25:18;1.33;;;1.10;;
20865;SDS011;10593;48.398;10.698;2023-07-13T13:27:44;2.97;;;1.30;;
20865;SDS011;10593;48.398;10.698;2023-07-13T13:30:14;1.00;;;1.00;;
20865;SDS011;10593;48.398;10.698;2023-07-13T13:32:43;1.10;;;0.97;;
20865;SDS011;10593;48.398;10.698;2023-07-13T13:35:15;2.53;;;1.10;;
20865;SDS011;10593;48.398;10.698;2023-07-13T13:37:43;1.23;;;0.93;;
20865;SDS011;10593;48.398;10.698;2023-07-13T13:40:14;1.10;;;0.90;;
20865;SDS011;10593;48.398;10.698;2023-07-13T13:42:44;1.77;;;1.07;;
20865;SDS011;10593;48.398;10.698;2023-07-13T13:45:10;1.43;;;1.23;;
20865;SDS011;10593;48.398;10.698;2023-07-13T13:47:37;1.10;;;1.00;;
20865;SDS011;10593;48.398;10.698;2023-07-13T13:50:10;1.43;;;1.30;;
20865;SDS011;10593;48.398;10.698;2023-07-13T13:52:39;3.63;;;1.40;;
20865;SDS011;10593;48.398;10.698;2023-07-13T13:55:16;1.90;;;1.20;;
20865;SDS011;10593;48.398;10.698;2023-07-13T13:57:48;2.17;;;1.20;;
20865;SDS011;10593;48.398;10.698;2023-07-13T14:00:15;1.20;;;1.03;;
20865;SDS011;10593;48.398;10.698;2023-07-13T14:02:43;1.03;;;1.00;;
20865;SDS011;10593;48.398;10.698;2023-07-13T14:05:13;2.57;;;1.07;;
20865;SDS011;10593;48.398;10.698;2023-07-13T14:07:41;2.00;;;1.07;;
20865;SDS011;10593;48.398;10.698;2023-07-13T14:10:14;2.77;;;1.50;;
20865;SDS011;10593;48.398;10.698;2023-07-13T14:12:43;1.47;;;1.20;;
20865;SDS011;10593;48.398;10.698;2023-07-13T14:15:23;1.47;;;1.33;;
20865;SDS011;10593;48.398;10.698;2023-07-13T14:17:52;1.13;;;1.03;;
20865;SDS011;10593;48.398;10.698;2023-07-13T14:20:21;1.20;;;1.10;;
20865;SDS011;10593;48.398;10.698;2023-07-13T14:22:49;2.50;;;1.00;;
20865;SDS011;10593;48.398;10.698;2023-07-13T14:25:17;2.90;;;1.23;;
20865;SDS011;10593;48.398;10.698;2023-07-13T14:27:45;1.07;;;1.07;;
20865;SDS011;10593;48.398;10.698;2023-07-13T14:30:18;1.90;;;0.90;;
20865;SDS011;10593;48.398;10.698;2023-07-13T14:32:46;0.90;;;0.90;;
20865;SDS011;10593;48.398;10.698;2023-07-13T14:35:14;1.53;;;1.23;;
20865;SDS011;10593;48.398;10.698;2023-07-13T14:37:42;1.20;;;1.10;;
20865;SDS011;10593;48.398;10.698;2023-07-13T14:40:12;1.10;;;1.07;;
20865;SDS011;10593;48.398;10.698;2023-07-13T14:42:42;1.20;;;1.10;;
20865;SDS011;10593;48.398;10.698;2023-07-13T14:45:14;1.10;;;1.00;;
20865;SDS011;10593;48.398;10.698;2023-07-13T14:47:42;1.37;;;0.90;;
20865;SDS011;10593;48.398;10.698;2023-07-13T14:52:47;1.20;;;1.00;;
20865;SDS011;10593;48.398;10.698;2023-07-13T14:55:14;1.17;;;1.03;;
20865;SDS011;10593;48.398;10.698;2023-07-13T14:57:42;2.10;;;1.00;;
20865;SDS011;10593;48.398;10.698;2023-07-13T15:00:15;1.10;;;1.00;;
20865;SDS011;10593;48.398;10.698;2023-07-13T15:02:45;1.30;;;1.20;;
20865;SDS011;10593;48.398;10.698;2023-07-13T15:05:17;1.37;;;1.27;;
20865;SDS011;10593;48.398;10.698;2023-07-13T15:07:56;2.20;;;1.20;;
20865;SDS011;10593;48.398;10.698;2023-07-13T15:10:27;2.30;;;0.93;;
20865;SDS011;10593;48.398;10.698;2023-07-13T15:13:00;0.83;;;0.83;;
20865;SDS011;10593;48.398;10.698;2023-07-13T15:15:43;1.03;;;0.90;;
20865;SDS011;10593;48.398;10.698;2023-07-13T15:18:14;1.00;;;0.83;;
20865;SDS011;10593;48.398;10.698;2023-07-13T15:20:44;2.07;;;1.20;;
20865;SDS011;10593;48.398;10.698;2023-07-13T15:23:12;1.07;;;0.97;;
20865;SDS011;10593;48.398;10.698;2023-07-13T15:25:40;1.83;;;0.90;;